< < Back
Terminal Aerodrome Forecast


Current Version              Previous Versions:   1  2  3  4  5  6  7  8  9  

Terminal Aerodrome Forecast

053
FTUS42 KTAE 172300
TAFDHN
TAF
KDHN 172320Z 1800/1824 31004KT P6SM SCT250=

Latest METAR

591
SAUS70 KWBC 190100
MTRDHN
METAR KDHN 190053Z 29005KT 10SM BKN047 14/02 A3016 RMK AO2 SLP212
T01390017 $


USA.gov is the U.S. government's official web portal to all federal, state and local government web resources and services.